sensor_id;sensor_type;location;lat;lon;timestamp;noise_LAeq;noise_LA_min;noise_LA_max;noise_LA01;noise_LA95
58303;Laerm;44109;52.398;7.024;2023-02-28T00:01:23;41.30;30.11;57.04;;
58303;Laerm;44109;52.398;7.024;2023-02-28T00:03:50;41.25;30.52;57.93;;
58303;Laerm;44109;52.398;7.024;2023-02-28T00:06:18;41.49;30.70;57.65;;
58303;Laerm;44109;52.398;7.024;2023-02-28T00:08:48;41.84;30.74;57.79;;
58303;Laerm;44109;52.398;7.024;2023-02-28T00:11:16;41.68;30.67;58.07;;
58303;Laerm;44109;52.398;7.024;2023-02-28T00:13:46;41.55;30.63;57.64;;
58303;Laerm;44109;52.398;7.024;2023-02-28T00:16:17;41.61;30.50;57.35;;
58303;Laerm;44109;52.398;7.024;2023-02-28T00:18:45;41.55;30.55;57.45;;
58303;Laerm;44109;52.398;7.024;2023-02-28T00:21:14;41.45;30.32;57.08;;
58303;Laerm;44109;52.398;7.024;2023-02-28T00:23:42;41.27;30.24;57.84;;
58303;Laerm;44109;52.398;7.024;2023-02-28T00:26:11;41.72;30.55;56.98;;
58303;Laerm;44109;52.398;7.024;2023-02-28T00:28:39;41.54;30.39;57.07;;
58303;Laerm;44109;52.398;7.024;2023-02-28T00:31:06;41.40;30.60;56.93;;
58303;Laerm;44109;52.398;7.024;2023-02-28T00:33:34;41.27;30.67;57.56;;
58303;Laerm;44109;52.398;7.024;2023-02-28T00:36:05;41.23;30.77;57.55;;
58303;Laerm;44109;52.398;7.024;2023-02-28T00:38:33;41.05;30.38;57.29;;
58303;Laerm;44109;52.398;7.024;2023-02-28T00:41:01;41.11;30.52;56.32;;
58303;Laerm;44109;52.398;7.024;2023-02-28T00:43:34;40.99;30.63;56.34;;
58303;Laerm;44109;52.398;7.024;2023-02-28T00:46:03;41.48;30.87;57.27;;
58303;Laerm;44109;52.398;7.024;2023-02-28T00:48:31;41.12;30.72;57.30;;
58303;Laerm;44109;52.398;7.024;2023-02-28T00:50:59;41.09;30.68;57.31;;
58303;Laerm;44109;52.398;7.024;2023-02-28T00:53:28;41.13;30.54;56.29;;
58303;Laerm;44109;52.398;7.024;2023-02-28T00:55:55;41.23;30.17;57.39;;
58303;Laerm;44109;52.398;7.024;2023-02-28T00:58:23;41.18;30.50;56.43;;
58303;Laerm;44109;52.398;7.024;2023-02-28T01:00:54;41.24;30.40;56.97;;
58303;Laerm;44109;52.398;7.024;2023-02-28T01:03:22;41.21;30.61;57.09;;
58303;Laerm;44109;52.398;7.024;2023-02-28T01:05:50;41.18;30.38;56.30;;
58303;Laerm;44109;52.398;7.024;2023-02-28T01:08:19;41.27;30.83;57.14;;
58303;Laerm;44109;52.398;7.024;2023-02-28T01:10:47;41.34;30.85;57.03;;
58303;Laerm;44109;52.398;7.024;2023-02-28T01:13:15;41.33;30.80;57.07;;
58303;Laerm;44109;52.398;7.024;2023-02-28T01:15:48;41.63;31.11;57.39;;
58303;Laerm;44109;52.398;7.024;2023-02-28T01:18:18;41.16;30.76;57.44;;
58303;Laerm;44109;52.398;7.024;2023-02-28T01:20:46;41.36;30.96;57.09;;
58303;Laerm;44109;52.398;7.024;2023-02-28T01:23:14;41.35;30.94;57.21;;
58303;Laerm;44109;52.398;7.024;2023-02-28T01:25:41;41.37;30.92;57.27;;
58303;Laerm;44109;52.398;7.024;2023-02-28T01:28:09;41.36;31.01;56.36;;
58303;Laerm;44109;52.398;7.024;2023-02-28T01:30:37;41.43;30.93;57.03;;
58303;Laerm;44109;52.398;7.024;2023-02-28T01:33:04;41.37;30.60;56.36;;
58303;Laerm;44109;52.398;7.024;2023-02-28T01:35:35;41.23;30.60;56.96;;
58303;Laerm;44109;52.398;7.024;2023-02-28T01:38:03;41.45;30.57;57.33;;
58303;Laerm;44109;52.398;7.024;2023-02-28T01:40:30;41.38;30.64;57.14;;
58303;Laerm;44109;52.398;7.024;2023-02-28T01:42:58;41.35;30.36;57.42;;
58303;Laerm;44109;52.398;7.024;2023-02-28T01:45:28;41.42;30.55;56.55;;
58303;Laerm;44109;52.398;7.024;2023-02-28T01:48:02;41.25;30.52;56.34;;
58303;Laerm;44109;52.398;7.024;2023-02-28T01:50:39;41.09;30.59;56.38;;
58303;Laerm;44109;52.398;7.024;2023-02-28T01:53:15;41.33;30.75;56.38;;
58303;Laerm;44109;52.398;7.024;2023-02-28T01:55:49;41.46;30.74;57.14;;
58303;Laerm;44109;52.398;7.024;2023-02-28T01:58:20;41.44;31.11;56.25;;
58303;Laerm;44109;52.398;7.024;2023-02-28T02:00:49;41.80;30.77;56.61;;
58303;Laerm;44109;52.398;7.024;2023-02-28T02:03:19;41.61;31.07;56.39;;
58303;Laerm;44109;52.398;7.024;2023-02-28T02:05:48;41.42;31.26;57.23;;
58303;Laerm;44109;52.398;7.024;2023-02-28T02:08:21;41.76;31.36;56.99;;
58303;Laerm;44109;52.398;7.024;2023-02-28T02:10:52;41.48;31.44;56.48;;
58303;Laerm;44109;52.398;7.024;2023-02-28T02:13:58;41.37;31.53;56.28;;
58303;Laerm;44109;52.398;7.024;2023-02-28T02:16:47;40.72;31.00;57.41;;
58303;Laerm;44109;52.398;7.024;2023-02-28T02:23:21;40.01;30.74;56.69;;
58303;Laerm;44109;52.398;7.024;2023-02-28T02:26:02;40.83;31.05;57.16;;
58303;Laerm;44109;52.398;7.024;2023-02-28T02:29:16;40.66;31.10;57.31;;
58303;Laerm;44109;52.398;7.024;2023-02-28T02:35:09;40.50;30.44;56.47;;
58303;Laerm;44109;52.398;7.024;2023-02-28T02:37:43;40.97;30.42;57.26;;
58303;Laerm;44109;52.398;7.024;2023-02-28T02:40:20;41.16;30.78;56.79;;
58303;Laerm;44109;52.398;7.024;2023-02-28T02:42:56;41.23;30.69;57.28;;
58303;Laerm;44109;52.398;7.024;2023-02-28T02:45:32;41.22;30.62;57.32;;
58303;Laerm;44109;52.398;7.024;2023-02-28T02:48:07;41.37;31.17;57.09;;
58303;Laerm;44109;52.398;7.024;2023-02-28T02:50:44;41.31;30.89;56.32;;
58303;Laerm;44109;52.398;7.024;2023-02-28T02:53:18;42.36;31.10;56.71;;
58303;Laerm;44109;52.398;7.024;2023-02-28T02:55:50;42.22;31.18;57.55;;
58303;Laerm;44109;52.398;7.024;2023-02-28T02:58:25;41.34;30.63;57.27;;
58303;Laerm;44109;52.398;7.024;2023-02-28T03:01:00;41.52;30.50;56.77;;
58303;Laerm;44109;52.398;7.024;2023-02-28T03:03:29;32.19;30.50;34.59;;
58303;Laerm;44109;52.398;7.024;2023-02-28T03:06:01;40.86;30.55;57.03;;
58303;Laerm;44109;52.398;7.024;2023-02-28T03:08:34;41.23;30.27;56.30;;
58303;Laerm;44109;52.398;7.024;2023-02-28T03:11:06;41.10;30.27;57.11;;
58303;Laerm;44109;52.398;7.024;2023-02-28T03:14:11;40.53;30.42;56.98;;
58303;Laerm;44109;52.398;7.024;2023-02-28T03:20:15;40.63;30.53;56.61;;
58303;Laerm;44109;52.398;7.024;2023-02-28T03:23:05;40.71;30.54;57.41;;
58303;Laerm;44109;52.398;7.024;2023-02-28T03:25:48;40.89;30.59;56.48;;
58303;Laerm;44109;52.398;7.024;2023-02-28T03:28:31;41.35;30.90;57.36;;
58303;Laerm;44109;52.398;7.024;2023-02-28T03:31:07;41.93;31.21;57.36;;
58303;Laerm;44109;52.398;7.024;2023-02-28T03:33:43;41.41;30.93;56.58;;
58303;Laerm;44109;52.398;7.024;2023-02-28T03:36:17;41.19;30.96;57.04;;
58303;Laerm;44109;52.398;7.024;2023-02-28T03:38:54;42.91;30.89;58.84;;
58303;Laerm;44109;52.398;7.024;2023-02-28T03:41:27;43.07;30.72;57.61;;
58303;Laerm;44109;52.398;7.024;2023-02-28T03:44:06;41.11;30.77;56.57;;
58303;Laerm;44109;52.398;7.024;2023-02-28T03:46:47;40.95;30.69;56.29;;
58303;Laerm;44109;52.398;7.024;2023-02-28T03:49:22;41.34;30.79;57.20;;
58303;Laerm;44109;52.398;7.024;2023-02-28T03:51:54;41.38;30.41;56.70;;
58303;Laerm;44109;52.398;7.024;2023-02-28T03:54:31;41.41;30.61;56.99;;
58303;Laerm;44109;52.398;7.024;2023-02-28T03:57:07;41.39;30.97;56.56;;
58303;Laerm;44109;52.398;7.024;2023-02-28T03:59:46;41.14;30.61;57.26;;
58303;Laerm;44109;52.398;7.024;2023-02-28T04:02:15;41.69;31.01;56.38;;
58303;Laerm;44109;52.398;7.024;2023-02-28T04:04:44;41.47;30.62;57.31;;
58303;Laerm;44109;52.398;7.024;2023-02-28T04:07:15;42.01;30.83;56.96;;
58303;Laerm;44109;52.398;7.024;2023-02-28T04:09:44;43.95;31.01;56.63;;
58303;Laerm;44109;52.398;7.024;2023-02-28T04:12:12;41.68;31.04;57.07;;
58303;Laerm;44109;52.398;7.024;2023-02-28T04:14:39;41.83;31.22;57.15;;
58303;Laerm;44109;52.398;7.024;2023-02-28T04:17:07;42.15;32.11;57.26;;
58303;Laerm;44109;52.398;7.024;2023-02-28T04:19:35;44.31;31.73;57.09;;
58303;Laerm;44109;52.398;7.024;2023-02-28T04:22:02;43.36;32.03;57.36;;
58303;Laerm;44109;52.398;7.024;2023-02-28T04:24:30;42.34;30.93;57.22;;
58303;Laerm;44109;52.398;7.024;2023-02-28T04:26:59;41.85;30.65;57.35;;
58303;Laerm;44109;52.398;7.024;2023-02-28T04:29:29;41.76;30.81;57.49;;
58303;Laerm;44109;52.398;7.024;2023-02-28T04:31:58;42.07;31.26;57.19;;
58303;Laerm;44109;52.398;7.024;2023-02-28T04:34:27;41.80;31.32;56.34;;
58303;Laerm;44109;52.398;7.024;2023-02-28T04:36:56;41.76;31.14;57.10;;
58303;Laerm;44109;52.398;7.024;2023-02-28T04:39:24;41.93;32.15;56.56;;
58303;Laerm;44109;52.398;7.024;2023-02-28T04:41:52;41.80;31.60;56.68;;
58303;Laerm;44109;52.398;7.024;2023-02-28T04:44:21;41.69;31.47;57.45;;
58303;Laerm;44109;52.398;7.024;2023-02-28T04:46:49;41.97;31.09;56.46;;
58303;Laerm;44109;52.398;7.024;2023-02-28T04:49:17;42.21;31.09;56.70;;
58303;Laerm;44109;52.398;7.024;2023-02-28T04:51:45;44.38;31.44;57.39;;
58303;Laerm;44109;52.398;7.024;2023-02-28T04:54:12;43.08;30.96;56.97;;
58303;Laerm;44109;52.398;7.024;2023-02-28T04:56:42;42.06;31.65;56.52;;
58303;Laerm;44109;52.398;7.024;2023-02-28T04:59:09;42.62;32.19;57.41;;
58303;Laerm;44109;52.398;7.024;2023-02-28T05:01:38;44.64;31.35;60.95;;
58303;Laerm;44109;52.398;7.024;2023-02-28T05:04:06;43.07;31.29;59.80;;
58303;Laerm;44109;52.398;7.024;2023-02-28T05:06:34;42.76;31.15;58.40;;
58303;Laerm;44109;52.398;7.024;2023-02-28T05:09:02;42.70;31.32;56.50;;
58303;Laerm;44109;52.398;7.024;2023-02-28T05:11:32;44.73;31.20;60.39;;
58303;Laerm;44109;52.398;7.024;2023-02-28T05:14:03;43.34;31.82;61.13;;
58303;Laerm;44109;52.398;7.024;2023-02-28T05:16:31;42.56;31.80;57.37;;
58303;Laerm;44109;52.398;7.024;2023-02-28T05:19:00;42.26;31.64;56.25;;
58303;Laerm;44109;52.398;7.024;2023-02-28T05:21:30;42.86;32.61;56.56;;
58303;Laerm;44109;52.398;7.024;2023-02-28T05:24:01;42.48;33.02;57.06;;
58303;Laerm;44109;52.398;7.024;2023-02-28T05:26:30;43.47;34.32;56.37;;
58303;Laerm;44109;52.398;7.024;2023-02-28T05:28:58;42.38;32.13;56.44;;
58303;Laerm;44109;52.398;7.024;2023-02-28T05:31:26;43.52;34.38;57.48;;
58303;Laerm;44109;52.398;7.024;2023-02-28T05:33:53;43.81;33.75;56.57;;
58303;Laerm;44109;52.398;7.024;2023-02-28T05:36:22;43.96;33.09;56.77;;
58303;Laerm;44109;52.398;7.024;2023-02-28T05:38:51;45.97;34.45;57.88;;
58303;Laerm;44109;52.398;7.024;2023-02-28T05:41:20;46.78;33.44;60.11;;
58303;Laerm;44109;52.398;7.024;2023-02-28T05:43:48;45.82;34.23;59.18;;
58303;Laerm;44109;52.398;7.024;2023-02-28T05:46:16;48.03;36.30;60.86;;
58303;Laerm;44109;52.398;7.024;2023-02-28T05:48:47;46.17;36.60;61.11;;
58303;Laerm;44109;52.398;7.024;2023-02-28T05:51:15;46.11;36.60;60.25;;
58303;Laerm;44109;52.398;7.024;2023-02-28T05:53:45;47.48;35.21;59.99;;
58303;Laerm;44109;52.398;7.024;2023-02-28T05:56:14;47.34;38.68;61.11;;
58303;Laerm;44109;52.398;7.024;2023-02-28T05:58:42;47.96;37.55;63.46;;
58303;Laerm;44109;52.398;7.024;2023-02-28T06:01:31;49.72;34.00;66.37;;
58303;Laerm;44109;52.398;7.024;2023-02-28T06:04:00;45.93;34.53;57.05;;
58303;Laerm;44109;52.398;7.024;2023-02-28T06:06:28;46.74;37.36;66.74;;
58303;Laerm;44109;52.398;7.024;2023-02-28T06:08:58;46.56;38.67;58.53;;
58303;Laerm;44109;52.398;7.024;2023-02-28T06:11:26;45.90;36.25;57.63;;
58303;Laerm;44109;52.398;7.024;2023-02-28T06:13:55;44.69;34.26;67.19;;
58303;Laerm;44109;52.398;7.024;2023-02-28T06:16:23;45.23;35.36;58.07;;
58303;Laerm;44109;52.398;7.024;2023-02-28T06:18:52;47.93;38.53;66.23;;
58303;Laerm;44109;52.398;7.024;2023-02-28T06:21:22;45.91;37.64;59.40;;
58303;Laerm;44109;52.398;7.024;2023-02-28T06:23:50;45.37;35.49;59.07;;
58303;Laerm;44109;52.398;7.024;2023-02-28T06:26:20;50.19;37.31;65.69;;
58303;Laerm;44109;52.398;7.024;2023-02-28T06:28:47;49.28;36.64;61.72;;
58303;Laerm;44109;52.398;7.024;2023-02-28T06:31:17;48.91;37.43;61.43;;
58303;Laerm;44109;52.398;7.024;2023-02-28T06:33:46;47.14;37.45;66.91;;
58303;Laerm;44109;52.398;7.024;2023-02-28T06:36:16;46.31;35.72;58.69;;
58303;Laerm;44109;52.398;7.024;2023-02-28T06:38:44;47.93;37.18;68.41;;
58303;Laerm;44109;52.398;7.024;2023-02-28T06:41:12;47.11;36.90;63.60;;
58303;Laerm;44109;52.398;7.024;2023-02-28T06:43:42;47.64;38.11;65.71;;
58303;Laerm;44109;52.398;7.024;2023-02-28T06:46:13;47.07;38.33;58.25;;
58303;Laerm;44109;52.398;7.024;2023-02-28T06:48:42;50.10;37.98;72.17;;
58303;Laerm;44109;52.398;7.024;2023-02-28T06:51:13;46.52;37.82;57.26;;
58303;Laerm;44109;52.398;7.024;2023-02-28T06:53:41;46.67;37.43;58.29;;
58303;Laerm;44109;52.398;7.024;2023-02-28T06:56:12;48.68;39.31;67.26;;
58303;Laerm;44109;52.398;7.024;2023-02-28T06:58:41;48.40;38.82;58.52;;
58303;Laerm;44109;52.398;7.024;2023-02-28T07:01:10;53.83;40.74;66.80;;
58303;Laerm;44109;52.398;7.024;2023-02-28T07:03:37;58.80;46.79;83.76;;
58303;Laerm;44109;52.398;7.024;2023-02-28T07:06:06;51.99;45.81;66.57;;
58303;Laerm;44109;52.398;7.024;2023-02-28T07:08:34;51.45;46.50;62.91;;
58303;Laerm;44109;52.398;7.024;2023-02-28T07:11:04;50.52;45.96;61.62;;
58303;Laerm;44109;52.398;7.024;2023-02-28T07:13:32;50.38;46.37;61.30;;
58303;Laerm;44109;52.398;7.024;2023-02-28T07:16:04;51.90;46.22;72.38;;
58303;Laerm;44109;52.398;7.024;2023-02-28T07:18:32;51.26;46.80;60.62;;
58303;Laerm;44109;52.398;7.024;2023-02-28T07:21:02;58.20;46.05;67.16;;
58303;Laerm;44109;52.398;7.024;2023-02-28T07:23:30;54.14;43.25;68.59;;
58303;Laerm;44109;52.398;7.024;2023-02-28T07:25:57;56.58;43.13;71.60;;
58303;Laerm;44109;52.398;7.024;2023-02-28T07:28:25;58.97;46.66;77.93;;
58303;Laerm;44109;52.398;7.024;2023-02-28T07:30:53;52.40;45.54;68.18;;
58303;Laerm;44109;52.398;7.024;2023-02-28T07:33:22;55.18;41.98;72.94;;
58303;Laerm;44109;52.398;7.024;2023-02-28T07:35:51;53.60;43.23;61.85;;
58303;Laerm;44109;52.398;7.024;2023-02-28T07:38:18;51.41;43.12;69.34;;
58303;Laerm;44109;52.398;7.024;2023-02-28T07:40:46;50.07;36.60;70.94;;
58303;Laerm;44109;52.398;7.024;2023-02-28T07:43:13;48.39;37.53;61.05;;
58303;Laerm;44109;52.398;7.024;2023-02-28T07:45:41;57.87;37.17;74.17;;
58303;Laerm;44109;52.398;7.024;2023-02-28T07:48:09;53.78;36.30;69.13;;
58303;Laerm;44109;52.398;7.024;2023-02-28T07:50:38;51.89;37.44;69.04;;
58303;Laerm;44109;52.398;7.024;2023-02-28T07:53:05;52.15;38.37;72.05;;
58303;Laerm;44109;52.398;7.024;2023-02-28T07:55:33;52.08;37.46;71.60;;
58303;Laerm;44109;52.398;7.024;2023-02-28T07:58:01;54.50;35.92;73.56;;
58303;Laerm;44109;52.398;7.024;2023-02-28T08:00:28;51.36;35.33;70.08;;
58303;Laerm;44109;52.398;7.024;2023-02-28T08:02:58;49.97;35.12;70.53;;
58303;Laerm;44109;52.398;7.024;2023-02-28T08:05:25;51.16;33.09;69.34;;
58303;Laerm;44109;52.398;7.024;2023-02-28T08:07:54;51.34;35.15;70.01;;
58303;Laerm;44109;52.398;7.024;2023-02-28T08:10:22;51.15;33.76;70.62;;
58303;Laerm;44109;52.398;7.024;2023-02-28T08:12:53;48.46;33.78;61.65;;
58303;Laerm;44109;52.398;7.024;2023-02-28T08:15:20;50.01;34.11;60.39;;
58303;Laerm;44109;52.398;7.024;2023-02-28T08:17:48;49.12;32.65;67.72;;
58303;Laerm;44109;52.398;7.024;2023-02-28T08:20:16;49.18;35.10;67.61;;
58303;Laerm;44109;52.398;7.024;2023-02-28T08:22:43;49.33;34.11;58.96;;
58303;Laerm;44109;52.398;7.024;2023-02-28T08:25:12;49.65;34.17;63.52;;
58303;Laerm;44109;52.398;7.024;2023-02-28T08:27:40;51.65;35.49;63.71;;
58303;Laerm;44109;52.398;7.024;2023-02-28T08:30:10;50.63;33.19;65.60;;
58303;Laerm;44109;52.398;7.024;2023-02-28T08:32:38;50.38;33.41;67.56;;
58303;Laerm;44109;52.398;7.024;2023-02-28T08:35:07;53.02;33.95;74.68;;
58303;Laerm;44109;52.398;7.024;2023-02-28T08:37:36;50.52;32.94;67.38;;
58303;Laerm;44109;52.398;7.024;2023-02-28T08:40:06;49.42;32.47;66.00;;
58303;Laerm;44109;52.398;7.024;2023-02-28T08:42:35;48.99;33.25;59.19;;
58303;Laerm;44109;52.398;7.024;2023-02-28T08:45:04;49.75;33.15;71.17;;
58303;Laerm;44109;52.398;7.024;2023-02-28T08:47:31;49.55;33.40;64.68;;
58303;Laerm;44109;52.398;7.024;2023-02-28T08:49:59;51.75;32.98;69.82;;
58303;Laerm;44109;52.398;7.024;2023-02-28T08:52:27;50.26;34.65;70.00;;
58303;Laerm;44109;52.398;7.024;2023-02-28T08:54:54;49.91;33.50;64.52;;
58303;Laerm;44109;52.398;7.024;2023-02-28T08:57:22;50.06;35.36;64.80;;
58303;Laerm;44109;52.398;7.024;2023-02-28T08:59:53;50.03;36.41;62.28;;
58303;Laerm;44109;52.398;7.024;2023-02-28T09:02:21;50.54;34.96;65.07;;
58303;Laerm;44109;52.398;7.024;2023-02-28T09:04:48;49.51;33.97;61.53;;
58303;Laerm;44109;52.398;7.024;2023-02-28T09:07:16;49.82;33.81;61.04;;
58303;Laerm;44109;52.398;7.024;2023-02-28T09:09:44;49.23;34.25;58.39;;
58303;Laerm;44109;52.398;7.024;2023-02-28T09:12:21;49.65;34.64;72.56;;
58303;Laerm;44109;52.398;7.024;2023-02-28T09:14:49;48.97;36.03;60.42;;
58303;Laerm;44109;52.398;7.024;2023-02-28T09:17:18;48.67;33.66;67.75;;
58303;Laerm;44109;52.398;7.024;2023-02-28T09:19:47;49.08;34.09;68.59;;
58303;Laerm;44109;52.398;7.024;2023-02-28T09:22:15;48.59;34.90;63.54;;
58303;Laerm;44109;52.398;7.024;2023-02-28T09:24:43;48.77;33.45;62.09;;
58303;Laerm;44109;52.398;7.024;2023-02-28T09:27:11;48.50;35.48;62.67;;
58303;Laerm;44109;52.398;7.024;2023-02-28T09:29:39;47.54;33.13;59.81;;
58303;Laerm;44109;52.398;7.024;2023-02-28T09:32:06;47.75;34.82;63.17;;
58303;Laerm;44109;52.398;7.024;2023-02-28T09:34:35;47.37;34.16;61.47;;
58303;Laerm;44109;52.398;7.024;2023-02-28T09:37:03;46.88;34.11;59.49;;
58303;Laerm;44109;52.398;7.024;2023-02-28T09:39:31;48.45;34.58;64.24;;
58303;Laerm;44109;52.398;7.024;2023-02-28T09:41:59;47.76;32.51;61.42;;
58303;Laerm;44109;52.398;7.024;2023-02-28T09:44:32;58.27;33.00;79.99;;
58303;Laerm;44109;52.398;7.024;2023-02-28T09:47:11;53.70;34.21;77.70;;
58303;Laerm;44109;52.398;7.024;2023-02-28T09:49:46;48.61;36.35;65.84;;
58303;Laerm;44109;52.398;7.024;2023-02-28T09:52:18;55.82;34.59;73.97;;
58303;Laerm;44109;52.398;7.024;2023-02-28T09:54:47;55.08;34.02;73.26;;
58303;Laerm;44109;52.398;7.024;2023-02-28T09:57:21;52.17;34.53;75.50;;
58303;Laerm;44109;52.398;7.024;2023-02-28T10:00:03;48.35;35.42;66.03;;
58303;Laerm;44109;52.398;7.024;2023-02-28T10:02:54;46.97;34.17;63.63;;
58303;Laerm;44109;52.398;7.024;2023-02-28T10:05:32;46.20;34.70;57.70;;
58303;Laerm;44109;52.398;7.024;2023-02-28T10:08:11;47.10;34.07;66.80;;
58303;Laerm;44109;52.398;7.024;2023-02-28T10:10:44;47.18;34.87;58.56;;
58303;Laerm;44109;52.398;7.024;2023-02-28T10:13:21;46.57;34.58;59.10;;
58303;Laerm;44109;52.398;7.024;2023-02-28T10:15:56;47.44;36.12;60.23;;
58303;Laerm;44109;52.398;7.024;2023-02-28T10:18:33;46.71;35.32;60.13;;
58303;Laerm;44109;52.398;7.024;2023-02-28T10:21:03;47.67;37.18;56.76;;
58303;Laerm;44109;52.398;7.024;2023-02-28T10:23:35;48.16;34.41;64.84;;
58303;Laerm;44109;52.398;7.024;2023-02-28T10:26:12;52.86;36.07;71.87;;
58303;Laerm;44109;52.398;7.024;2023-02-28T10:28:42;52.54;37.06;69.67;;
58303;Laerm;44109;52.398;7.024;2023-02-28T10:31:16;52.51;35.37;69.33;;
58303;Laerm;44109;52.398;7.024;2023-02-28T10:33:45;49.31;36.78;61.80;;
58303;Laerm;44109;52.398;7.024;2023-02-28T10:36:17;48.01;37.61;66.16;;
58303;Laerm;44109;52.398;7.024;2023-02-28T10:38:46;47.04;35.30;57.72;;
58303;Laerm;44109;52.398;7.024;2023-02-28T10:41:17;46.99;35.50;59.40;;
58303;Laerm;44109;52.398;7.024;2023-02-28T10:44:14;47.58;34.40;57.32;;
58303;Laerm;44109;52.398;7.024;2023-02-28T10:46:42;48.54;38.20;65.66;;
58303;Laerm;44109;52.398;7.024;2023-02-28T10:49:20;49.47;35.01;72.12;;
58303;Laerm;44109;52.398;7.024;2023-02-28T10:51:54;50.70;37.05;70.69;;
58303;Laerm;44109;52.398;7.024;2023-02-28T10:54:28;47.95;37.01;64.56;;
58303;Laerm;44109;52.398;7.024;2023-02-28T10:57:16;48.49;38.73;66.95;;
58303;Laerm;44109;52.398;7.024;2023-02-28T10:59:46;49.01;37.63;66.10;;
58303;Laerm;44109;52.398;7.024;2023-02-28T11:02:34;49.98;38.95;67.51;;
58303;Laerm;44109;52.398;7.024;2023-02-28T11:05:02;48.17;40.00;61.81;;
58303;Laerm;44109;52.398;7.024;2023-02-28T11:07:54;48.76;37.99;66.50;;
58303;Laerm;44109;52.398;7.024;2023-02-28T11:10:28;51.27;39.12;73.74;;
58303;Laerm;44109;52.398;7.024;2023-02-28T11:12:58;49.90;37.61;67.60;;
58303;Laerm;44109;52.398;7.024;2023-02-28T11:15:29;50.54;36.93;66.51;;
58303;Laerm;44109;52.398;7.024;2023-02-28T11:18:00;49.58;38.15;63.87;;
58303;Laerm;44109;52.398;7.024;2023-02-28T11:20:32;49.64;38.84;69.86;;
58303;Laerm;44109;52.398;7.024;2023-02-28T11:23:04;51.57;36.91;74.63;;
58303;Laerm;44109;52.398;7.024;2023-02-28T11:25:35;47.14;34.35;62.86;;
58303;Laerm;44109;52.398;7.024;2023-02-28T11:28:06;50.34;38.05;69.27;;
58303;Laerm;44109;52.398;7.024;2023-02-28T11:30:37;47.89;36.69;68.27;;
58303;Laerm;44109;52.398;7.024;2023-02-28T11:33:28;50.70;36.05;70.00;;
58303;Laerm;44109;52.398;7.024;2023-02-28T11:36:01;50.26;41.80;63.24;;
58303;Laerm;44109;52.398;7.024;2023-02-28T11:38:34;46.33;35.21;60.34;;
58303;Laerm;44109;52.398;7.024;2023-02-28T11:44:27;47.70;35.93;70.87;;
58303;Laerm;44109;52.398;7.024;2023-02-28T11:47:08;51.62;40.38;75.84;;
58303;Laerm;44109;52.398;7.024;2023-02-28T11:49:50;50.59;38.08;68.16;;
58303;Laerm;44109;52.398;7.024;2023-02-28T11:52:36;48.13;38.21;62.35;;
58303;Laerm;44109;52.398;7.024;2023-02-28T11:55:17;51.41;39.09;65.21;;
58303;Laerm;44109;52.398;7.024;2023-02-28T11:58:05;49.18;37.33;63.03;;
58303;Laerm;44109;52.398;7.024;2023-02-28T12:01:01;49.00;37.30;66.60;;
58303;Laerm;44109;52.398;7.024;2023-02-28T12:03:44;46.76;35.02;70.40;;
58303;Laerm;44109;52.398;7.024;2023-02-28T12:06:25;47.51;36.44;66.90;;
58303;Laerm;44109;52.398;7.024;2023-02-28T12:09:08;48.51;37.60;57.16;;
58303;Laerm;44109;52.398;7.024;2023-02-28T12:11:52;49.24;39.03;64.80;;
58303;Laerm;44109;52.398;7.024;2023-02-28T12:14:47;47.62;36.84;66.45;;
58303;Laerm;44109;52.398;7.024;2023-02-28T12:17:34;48.10;37.98;62.79;;
58303;Laerm;44109;52.398;7.024;2023-02-28T12:20:19;47.87;37.55;66.67;;
58303;Laerm;44109;52.398;7.024;2023-02-28T12:23:01;47.44;36.73;64.50;;
58303;Laerm;44109;52.398;7.024;2023-02-28T12:25:52;50.87;37.85;65.62;;
58303;Laerm;44109;52.398;7.024;2023-02-28T12:28:30;49.92;39.06;59.20;;
58303;Laerm;44109;52.398;7.024;2023-02-28T12:31:05;49.38;35.45;59.32;;
58303;Laerm;44109;52.398;7.024;2023-02-28T12:33:43;49.03;36.79;68.05;;
58303;Laerm;44109;52.398;7.024;2023-02-28T12:36:17;47.16;35.24;59.35;;
58303;Laerm;44109;52.398;7.024;2023-02-28T12:38:55;47.23;34.37;57.93;;
58303;Laerm;44109;52.398;7.024;2023-02-28T12:41:31;44.71;34.37;57.41;;
58303;Laerm;44109;52.398;7.024;2023-02-28T12:44:08;47.41;36.70;62.69;;
58303;Laerm;44109;52.398;7.024;2023-02-28T12:46:42;52.82;37.56;77.92;;
58303;Laerm;44109;52.398;7.024;2023-02-28T12:49:18;50.11;36.26;76.71;;
58303;Laerm;44109;52.398;7.024;2023-02-28T12:51:49;49.74;37.97;63.32;;
58303;Laerm;44109;52.398;7.024;2023-02-28T12:54:26;52.09;36.76;75.55;;
58303;Laerm;44109;52.398;7.024;2023-02-28T12:57:07;47.08;36.70;61.38;;
58303;Laerm;44109;52.398;7.024;2023-02-28T12:59:48;46.70;35.34;67.74;;
58303;Laerm;44109;52.398;7.024;2023-02-28T13:02:54;49.29;36.28;77.57;;
58303;Laerm;44109;52.398;7.024;2023-02-28T13:05:57;45.69;36.82;68.71;;
58303;Laerm;44109;52.398;7.024;2023-02-28T13:09:05;46.35;36.13;71.28;;
58303;Laerm;44109;52.398;7.024;2023-02-28T13:11:41;46.56;37.31;60.99;;
58303;Laerm;44109;52.398;7.024;2023-02-28T13:14:24;45.87;37.23;60.43;;
58303;Laerm;44109;52.398;7.024;2023-02-28T13:17:12;47.34;36.75;66.82;;
58303;Laerm;44109;52.398;7.024;2023-02-28T13:19:56;47.05;39.01;66.09;;
58303;Laerm;44109;52.398;7.024;2023-02-28T13:22:40;49.93;35.68;66.00;;
58303;Laerm;44109;52.398;7.024;2023-02-28T13:25:51;49.79;37.17;67.74;;
58303;Laerm;44109;52.398;7.024;2023-02-28T13:29:01;48.23;38.79;66.19;;
58303;Laerm;44109;52.398;7.024;2023-02-28T13:31:31;53.96;39.95;79.12;;
58303;Laerm;44109;52.398;7.024;2023-02-28T13:34:15;48.87;36.07;58.52;;
58303;Laerm;44109;52.398;7.024;2023-02-28T13:36:43;51.63;37.80;77.24;;
58303;Laerm;44109;52.398;7.024;2023-02-28T13:39:45;50.00;35.81;67.56;;
58303;Laerm;44109;52.398;7.024;2023-02-28T13:42:32;51.91;37.05;72.14;;
58303;Laerm;44109;52.398;7.024;2023-02-28T13:45:26;50.78;36.39;71.29;;
58303;Laerm;44109;52.398;7.024;2023-02-28T13:47:59;51.53;38.09;71.00;;
58303;Laerm;44109;52.398;7.024;2023-02-28T13:50:33;49.15;38.48;67.68;;
58303;Laerm;44109;52.398;7.024;2023-02-28T13:53:55;50.56;37.98;72.87;;
58303;Laerm;44109;52.398;7.024;2023-02-28T13:56:43;49.70;36.77;73.52;;
58303;Laerm;44109;52.398;7.024;2023-02-28T13:59:27;48.37;38.11;61.31;;
58303;Laerm;44109;52.398;7.024;2023-02-28T14:02:28;50.24;36.82;68.53;;
58303;Laerm;44109;52.398;7.024;2023-02-28T14:05:06;49.74;37.39;72.97;;
58303;Laerm;44109;52.398;7.024;2023-02-28T14:07:48;48.86;37.61;62.34;;
58303;Laerm;44109;52.398;7.024;2023-02-28T14:10:26;48.32;37.20;65.96;;
58303;Laerm;44109;52.398;7.024;2023-02-28T14:13:11;50.72;37.31;67.69;;
58303;Laerm;44109;52.398;7.024;2023-02-28T14:15:54;49.79;38.13;64.29;;
58303;Laerm;44109;52.398;7.024;2023-02-28T14:18:28;49.48;37.51;67.95;;
58303;Laerm;44109;52.398;7.024;2023-02-28T14:21:14;50.18;39.04;66.65;;
58303;Laerm;44109;52.398;7.024;2023-02-28T14:27:24;53.15;38.64;74.29;;
58303;Laerm;44109;52.398;7.024;2023-02-28T14:33:26;51.51;36.04;68.40;;
58303;Laerm;44109;52.398;7.024;2023-02-28T14:36:07;48.41;36.82;63.49;;
58303;Laerm;44109;52.398;7.024;2023-02-28T14:38:44;49.44;35.50;67.83;;
58303;Laerm;44109;52.398;7.024;2023-02-28T14:41:28;48.82;37.16;62.14;;